sensor_id;sensor_type;location;lat;lon;timestamp;P1;durP1;ratioP1;P2;durP2;ratioP2
20154;SDS011;10238;49.556;10.956;2022-07-23T00:00:44;11.95;;;10.88;;
20154;SDS011;10238;49.556;10.956;2022-07-23T00:03:13;11.90;;;10.68;;
20154;SDS011;10238;49.556;10.956;2022-07-23T00:05:43;11.35;;;10.45;;
20154;SDS011;10238;49.556;10.956;2022-07-23T00:08:12;12.23;;;10.90;;
20154;SDS011;10238;49.556;10.956;2022-07-23T00:10:45;14.15;;;10.70;;
20154;SDS011;10238;49.556;10.956;2022-07-23T00:13:36;11.90;;;10.25;;
20154;SDS011;10238;49.556;10.956;2022-07-23T00:16:07;16.45;;;9.88;;
20154;SDS011;10238;49.556;10.956;2022-07-23T00:18:36;11.02;;;8.77;;
20154;SDS011;10238;49.556;10.956;2022-07-23T00:21:06;10.85;;;9.25;;
20154;SDS011;10238;49.556;10.956;2022-07-23T00:23:38;15.35;;;9.70;;
20154;SDS011;10238;49.556;10.956;2022-07-23T00:26:13;14.27;;;9.02;;
20154;SDS011;10238;49.556;10.956;2022-07-23T00:28:44;13.90;;;8.98;;
20154;SDS011;10238;49.556;10.956;2022-07-23T00:31:15;9.20;;;8.27;;
20154;SDS011;10238;49.556;10.956;2022-07-23T00:33:45;9.55;;;8.55;;
20154;SDS011;10238;49.556;10.956;2022-07-23T00:36:15;10.32;;;7.75;;
20154;SDS011;10238;49.556;10.956;2022-07-23T00:38:44;10.20;;;7.90;;
20154;SDS011;10238;49.556;10.956;2022-07-23T00:41:14;11.45;;;9.10;;
20154;SDS011;10238;49.556;10.956;2022-07-23T00:43:44;11.23;;;9.90;;
20154;SDS011;10238;49.556;10.956;2022-07-23T00:46:12;12.15;;;10.15;;
20154;SDS011;10238;49.556;10.956;2022-07-23T00:48:47;9.63;;;8.23;;
20154;SDS011;10238;49.556;10.956;2022-07-23T00:51:16;10.77;;;9.68;;
20154;SDS011;10238;49.556;10.956;2022-07-23T00:53:46;12.23;;;11.13;;
20154;SDS011;10238;49.556;10.956;2022-07-23T00:56:16;12.02;;;10.77;;
20154;SDS011;10238;49.556;10.956;2022-07-23T00:58:45;10.20;;;8.00;;
20154;SDS011;10238;49.556;10.956;2022-07-23T01:01:14;12.68;;;8.63;;
20154;SDS011;10238;49.556;10.956;2022-07-23T01:03:43;12.35;;;10.95;;
20154;SDS011;10238;49.556;10.956;2022-07-23T01:06:13;12.55;;;11.25;;
20154;SDS011;10238;49.556;10.956;2022-07-23T01:08:42;14.93;;;11.43;;
20154;SDS011;10238;49.556;10.956;2022-07-23T01:11:14;11.75;;;10.38;;
20154;SDS011;10238;49.556;10.956;2022-07-23T01:13:46;10.15;;;8.43;;
20154;SDS011;10238;49.556;10.956;2022-07-23T01:16:16;11.70;;;10.38;;
20154;SDS011;10238;49.556;10.956;2022-07-23T01:18:46;11.40;;;10.35;;
20154;SDS011;10238;49.556;10.956;2022-07-23T01:21:15;12.52;;;11.32;;
20154;SDS011;10238;49.556;10.956;2022-07-23T01:24:00;12.48;;;11.38;;
20154;SDS011;10238;49.556;10.956;2022-07-23T01:26:30;12.30;;;11.10;;
20154;SDS011;10238;49.556;10.956;2022-07-23T01:29:00;13.55;;;11.15;;
20154;SDS011;10238;49.556;10.956;2022-07-23T01:31:41;12.27;;;11.10;;
20154;SDS011;10238;49.556;10.956;2022-07-23T01:34:30;12.15;;;11.05;;
20154;SDS011;10238;49.556;10.956;2022-07-23T01:37:19;12.25;;;11.15;;
20154;SDS011;10238;49.556;10.956;2022-07-23T01:39:50;11.80;;;10.70;;
20154;SDS011;10238;49.556;10.956;2022-07-23T01:42:19;10.55;;;8.90;;
20154;SDS011;10238;49.556;10.956;2022-07-23T01:44:48;13.50;;;11.20;;
20154;SDS011;10238;49.556;10.956;2022-07-23T01:47:17;10.38;;;9.43;;
20154;SDS011;10238;49.556;10.956;2022-07-23T01:49:46;11.68;;;10.68;;
20154;SDS011;10238;49.556;10.956;2022-07-23T01:52:15;15.18;;;13.63;;
20154;SDS011;10238;49.556;10.956;2022-07-23T01:54:44;18.58;;;13.98;;
20154;SDS011;10238;49.556;10.956;2022-07-23T01:57:14;13.55;;;12.20;;
20154;SDS011;10238;49.556;10.956;2022-07-23T01:59:43;13.07;;;11.88;;
20154;SDS011;10238;49.556;10.956;2022-07-23T02:02:12;14.13;;;12.77;;
20154;SDS011;10238;49.556;10.956;2022-07-23T02:04:41;14.48;;;11.52;;
20154;SDS011;10238;49.556;10.956;2022-07-23T02:07:10;13.70;;;12.15;;
20154;SDS011;10238;49.556;10.956;2022-07-23T02:09:39;13.70;;;12.43;;
20154;SDS011;10238;49.556;10.956;2022-07-23T02:12:08;15.18;;;13.63;;
20154;SDS011;10238;49.556;10.956;2022-07-23T02:14:39;13.48;;;11.98;;
20154;SDS011;10238;49.556;10.956;2022-07-23T02:17:11;15.07;;;13.65;;
20154;SDS011;10238;49.556;10.956;2022-07-23T02:19:40;15.52;;;10.93;;
20154;SDS011;10238;49.556;10.956;2022-07-23T02:22:09;13.63;;;11.25;;
20154;SDS011;10238;49.556;10.956;2022-07-23T02:24:38;12.32;;;11.02;;
20154;SDS011;10238;49.556;10.956;2022-07-23T02:27:07;15.23;;;13.38;;
20154;SDS011;10238;49.556;10.956;2022-07-23T02:29:36;13.20;;;11.82;;
20154;SDS011;10238;49.556;10.956;2022-07-23T02:32:06;16.27;;;13.40;;
20154;SDS011;10238;49.556;10.956;2022-07-23T02:34:35;16.38;;;14.73;;
20154;SDS011;10238;49.556;10.956;2022-07-23T02:37:04;13.60;;;12.32;;
20154;SDS011;10238;49.556;10.956;2022-07-23T02:39:35;15.15;;;13.75;;
20154;SDS011;10238;49.556;10.956;2022-07-23T02:42:04;16.98;;;15.35;;
20154;SDS011;10238;49.556;10.956;2022-07-23T02:44:33;19.67;;;18.02;;
20154;SDS011;10238;49.556;10.956;2022-07-23T02:47:03;17.80;;;16.30;;
20154;SDS011;10238;49.556;10.956;2022-07-23T02:49:33;18.50;;;16.98;;
20154;SDS011;10238;49.556;10.956;2022-07-23T02:52:03;17.90;;;16.02;;
20154;SDS011;10238;49.556;10.956;2022-07-23T02:54:32;17.95;;;16.05;;
20154;SDS011;10238;49.556;10.956;2022-07-23T02:57:03;17.38;;;15.60;;
20154;SDS011;10238;49.556;10.956;2022-07-23T02:59:32;22.92;;;20.90;;
20154;SDS011;10238;49.556;10.956;2022-07-23T03:02:01;21.05;;;19.27;;
20154;SDS011;10238;49.556;10.956;2022-07-23T03:04:30;23.25;;;21.30;;
20154;SDS011;10238;49.556;10.956;2022-07-23T03:07:01;18.58;;;17.00;;
20154;SDS011;10238;49.556;10.956;2022-07-23T03:09:30;20.30;;;18.15;;
20154;SDS011;10238;49.556;10.956;2022-07-23T03:11:59;17.65;;;16.15;;
20154;SDS011;10238;49.556;10.956;2022-07-23T03:14:28;16.67;;;15.30;;
20154;SDS011;10238;49.556;10.956;2022-07-23T03:16:57;21.58;;;19.88;;
20154;SDS011;10238;49.556;10.956;2022-07-23T03:19:27;16.83;;;15.32;;
20154;SDS011;10238;49.556;10.956;2022-07-23T03:21:55;15.77;;;14.13;;
20154;SDS011;10238;49.556;10.956;2022-07-23T03:24:26;16.55;;;13.13;;
20154;SDS011;10238;49.556;10.956;2022-07-23T03:27:16;16.20;;;14.60;;
20154;SDS011;10238;49.556;10.956;2022-07-23T03:29:45;18.58;;;16.80;;
20154;SDS011;10238;49.556;10.956;2022-07-23T03:32:14;14.50;;;13.13;;
20154;SDS011;10238;49.556;10.956;2022-07-23T03:34:43;18.08;;;14.85;;
20154;SDS011;10238;49.556;10.956;2022-07-23T03:37:12;14.93;;;12.68;;
20154;SDS011;10238;49.556;10.956;2022-07-23T03:39:44;19.13;;;17.55;;
20154;SDS011;10238;49.556;10.956;2022-07-23T03:42:13;16.83;;;15.18;;
20154;SDS011;10238;49.556;10.956;2022-07-23T03:44:42;16.52;;;14.82;;
20154;SDS011;10238;49.556;10.956;2022-07-23T03:47:11;15.70;;;13.65;;
20154;SDS011;10238;49.556;10.956;2022-07-23T03:49:40;14.70;;;13.23;;
20154;SDS011;10238;49.556;10.956;2022-07-23T03:52:09;16.52;;;14.68;;
20154;SDS011;10238;49.556;10.956;2022-07-23T03:54:38;16.08;;;14.40;;
20154;SDS011;10238;49.556;10.956;2022-07-23T03:57:09;17.20;;;13.23;;
20154;SDS011;10238;49.556;10.956;2022-07-23T03:59:38;20.10;;;18.50;;
20154;SDS011;10238;49.556;10.956;2022-07-23T04:02:07;17.30;;;14.77;;
20154;SDS011;10238;49.556;10.956;2022-07-23T04:04:36;16.75;;;13.55;;
20154;SDS011;10238;49.556;10.956;2022-07-23T04:07:04;16.58;;;12.73;;
20154;SDS011;10238;49.556;10.956;2022-07-23T04:09:34;18.00;;;14.32;;
20154;SDS011;10238;49.556;10.956;2022-07-23T04:12:03;17.23;;;13.10;;
20154;SDS011;10238;49.556;10.956;2022-07-23T04:14:34;15.18;;;11.88;;
20154;SDS011;10238;49.556;10.956;2022-07-23T04:17:03;13.05;;;11.63;;
20154;SDS011;10238;49.556;10.956;2022-07-23T04:19:32;19.08;;;12.85;;
20154;SDS011;10238;49.556;10.956;2022-07-23T04:22:03;14.27;;;12.50;;
20154;SDS011;10238;49.556;10.956;2022-07-23T04:24:32;15.60;;;12.05;;
20154;SDS011;10238;49.556;10.956;2022-07-23T04:27:01;17.77;;;12.45;;
20154;SDS011;10238;49.556;10.956;2022-07-23T04:29:31;15.05;;;12.38;;
20154;SDS011;10238;49.556;10.956;2022-07-23T04:32:02;15.02;;;11.95;;
20154;SDS011;10238;49.556;10.956;2022-07-23T04:34:31;18.05;;;14.23;;
20154;SDS011;10238;49.556;10.956;2022-07-23T04:37:01;17.50;;;13.48;;
20154;SDS011;10238;49.556;10.956;2022-07-23T04:39:30;14.80;;;11.57;;
20154;SDS011;10238;49.556;10.956;2022-07-23T04:41:58;16.25;;;11.27;;
20154;SDS011;10238;49.556;10.956;2022-07-23T04:44:27;14.10;;;11.75;;
20154;SDS011;10238;49.556;10.956;2022-07-23T04:46:56;13.65;;;11.38;;
20154;SDS011;10238;49.556;10.956;2022-07-23T04:49:27;15.40;;;12.02;;
20154;SDS011;10238;49.556;10.956;2022-07-23T04:51:56;17.80;;;12.80;;
20154;SDS011;10238;49.556;10.956;2022-07-23T04:54:25;14.35;;;12.80;;
20154;SDS011;10238;49.556;10.956;2022-07-23T04:56:54;13.77;;;12.18;;
20154;SDS011;10238;49.556;10.956;2022-07-23T04:59:23;14.52;;;12.50;;
20154;SDS011;10238;49.556;10.956;2022-07-23T05:01:52;14.27;;;12.02;;
20154;SDS011;10238;49.556;10.956;2022-07-23T05:04:21;17.15;;;12.27;;
20154;SDS011;10238;49.556;10.956;2022-07-23T05:06:51;17.92;;;13.60;;
20154;SDS011;10238;49.556;10.956;2022-07-23T05:09:20;13.70;;;12.30;;
20154;SDS011;10238;49.556;10.956;2022-07-23T05:11:49;14.60;;;12.57;;
20154;SDS011;10238;49.556;10.956;2022-07-23T05:14:18;17.17;;;13.93;;
20154;SDS011;10238;49.556;10.956;2022-07-23T05:16:47;17.70;;;14.10;;
20154;SDS011;10238;49.556;10.956;2022-07-23T05:19:18;13.43;;;10.20;;
20154;SDS011;10238;49.556;10.956;2022-07-23T05:21:52;15.93;;;13.48;;
20154;SDS011;10238;49.556;10.956;2022-07-23T05:24:21;13.80;;;12.43;;
20154;SDS011;10238;49.556;10.956;2022-07-23T05:26:50;16.55;;;11.05;;
20154;SDS011;10238;49.556;10.956;2022-07-23T05:29:20;11.38;;;10.27;;
20154;SDS011;10238;49.556;10.956;2022-07-23T05:31:49;12.57;;;10.70;;
20154;SDS011;10238;49.556;10.956;2022-07-23T05:34:17;12.00;;;9.75;;
20154;SDS011;10238;49.556;10.956;2022-07-23T05:36:46;13.95;;;9.88;;
20154;SDS011;10238;49.556;10.956;2022-07-23T05:39:17;13.32;;;10.77;;
20154;SDS011;10238;49.556;10.956;2022-07-23T05:41:46;12.70;;;10.13;;
20154;SDS011;10238;49.556;10.956;2022-07-23T05:44:15;11.75;;;9.88;;
20154;SDS011;10238;49.556;10.956;2022-07-23T05:46:44;11.82;;;10.55;;
20154;SDS011;10238;49.556;10.956;2022-07-23T05:49:13;9.93;;;9.02;;
20154;SDS011;10238;49.556;10.956;2022-07-23T05:51:42;10.50;;;8.57;;
20154;SDS011;10238;49.556;10.956;2022-07-23T05:54:12;9.82;;;7.90;;
20154;SDS011;10238;49.556;10.956;2022-07-23T05:56:45;9.48;;;7.93;;
20154;SDS011;10238;49.556;10.956;2022-07-23T05:59:17;8.27;;;7.28;;
20154;SDS011;10238;49.556;10.956;2022-07-23T06:01:46;7.97;;;7.28;;
20154;SDS011;10238;49.556;10.956;2022-07-23T06:04:15;9.60;;;8.60;;
20154;SDS011;10238;49.556;10.956;2022-07-23T06:06:44;8.20;;;7.40;;
20154;SDS011;10238;49.556;10.956;2022-07-23T06:09:12;8.93;;;8.05;;
20154;SDS011;10238;49.556;10.956;2022-07-23T06:11:43;8.90;;;8.10;;
20154;SDS011;10238;49.556;10.956;2022-07-23T06:14:12;11.63;;;7.70;;
20154;SDS011;10238;49.556;10.956;2022-07-23T06:16:41;8.00;;;7.15;;
20154;SDS011;10238;49.556;10.956;2022-07-23T06:19:10;10.07;;;7.88;;
20154;SDS011;10238;49.556;10.956;2022-07-23T06:21:39;7.78;;;7.00;;
20154;SDS011;10238;49.556;10.956;2022-07-23T06:24:13;7.68;;;6.78;;
20154;SDS011;10238;49.556;10.956;2022-07-23T06:26:44;10.82;;;7.30;;
20154;SDS011;10238;49.556;10.956;2022-07-23T06:29:13;8.23;;;7.53;;
20154;SDS011;10238;49.556;10.956;2022-07-23T06:31:42;8.60;;;7.70;;
20154;SDS011;10238;49.556;10.956;2022-07-23T06:34:11;7.75;;;7.07;;
20154;SDS011;10238;49.556;10.956;2022-07-23T06:36:40;9.73;;;6.80;;
20154;SDS011;10238;49.556;10.956;2022-07-23T06:39:09;8.13;;;6.55;;
20154;SDS011;10238;49.556;10.956;2022-07-23T06:41:37;9.68;;;6.90;;
20154;SDS011;10238;49.556;10.956;2022-07-23T06:44:08;8.40;;;7.57;;
20154;SDS011;10238;49.556;10.956;2022-07-23T06:46:37;9.52;;;8.63;;
20154;SDS011;10238;49.556;10.956;2022-07-23T06:49:06;8.88;;;8.07;;
20154;SDS011;10238;49.556;10.956;2022-07-23T06:51:35;7.95;;;7.07;;
20154;SDS011;10238;49.556;10.956;2022-07-23T06:54:04;8.10;;;7.20;;
20154;SDS011;10238;49.556;10.956;2022-07-23T06:56:33;8.20;;;7.40;;
20154;SDS011;10238;49.556;10.956;2022-07-23T06:59:02;8.68;;;7.78;;
20154;SDS011;10238;49.556;10.956;2022-07-23T07:01:34;7.22;;;6.63;;
20154;SDS011;10238;49.556;10.956;2022-07-23T07:04:03;9.45;;;7.00;;
20154;SDS011;10238;49.556;10.956;2022-07-23T07:06:32;7.95;;;7.22;;
20154;SDS011;10238;49.556;10.956;2022-07-23T07:09:01;8.82;;;8.02;;
20154;SDS011;10238;49.556;10.956;2022-07-23T07:11:31;9.23;;;8.32;;
20154;SDS011;10238;49.556;10.956;2022-07-23T07:14:00;9.43;;;7.82;;
20154;SDS011;10238;49.556;10.956;2022-07-23T07:16:29;8.20;;;7.40;;
20154;SDS011;10238;49.556;10.956;2022-07-23T07:19:00;8.98;;;7.85;;
20154;SDS011;10238;49.556;10.956;2022-07-23T07:21:30;8.93;;;8.10;;
20154;SDS011;10238;49.556;10.956;2022-07-23T07:23:59;8.25;;;7.25;;
20154;SDS011;10238;49.556;10.956;2022-07-23T07:26:28;9.02;;;8.13;;
20154;SDS011;10238;49.556;10.956;2022-07-23T07:28:57;11.32;;;7.30;;
20154;SDS011;10238;49.556;10.956;2022-07-23T07:31:27;11.25;;;7.18;;
20154;SDS011;10238;49.556;10.956;2022-07-23T07:33:56;8.82;;;7.43;;
20154;SDS011;10238;49.556;10.956;2022-07-23T07:36:28;12.57;;;7.15;;
20154;SDS011;10238;49.556;10.956;2022-07-23T07:38:57;8.77;;;7.88;;
20154;SDS011;10238;49.556;10.956;2022-07-23T07:41:26;8.85;;;7.00;;
20154;SDS011;10238;49.556;10.956;2022-07-23T07:43:55;11.02;;;7.32;;
20154;SDS011;10238;49.556;10.956;2022-07-23T07:46:24;8.70;;;7.47;;
20154;SDS011;10238;49.556;10.956;2022-07-23T07:48:54;9.82;;;7.97;;
20154;SDS011;10238;49.556;10.956;2022-07-23T07:51:24;11.43;;;8.50;;
20154;SDS011;10238;49.556;10.956;2022-07-23T07:53:55;10.05;;;8.82;;
20154;SDS011;10238;49.556;10.956;2022-07-23T07:56:25;11.48;;;8.40;;
20154;SDS011;10238;49.556;10.956;2022-07-23T07:58:54;9.82;;;7.88;;
20154;SDS011;10238;49.556;10.956;2022-07-23T08:01:23;11.43;;;8.35;;
20154;SDS011;10238;49.556;10.956;2022-07-23T08:03:52;10.07;;;7.72;;
20154;SDS011;10238;49.556;10.956;2022-07-23T08:06:21;11.05;;;7.72;;
20154;SDS011;10238;49.556;10.956;2022-07-23T08:08:50;11.82;;;7.90;;
20154;SDS011;10238;49.556;10.956;2022-07-23T08:11:20;9.43;;;7.72;;
20154;SDS011;10238;49.556;10.956;2022-07-23T08:13:49;7.72;;;6.93;;
20154;SDS011;10238;49.556;10.956;2022-07-23T08:16:18;9.18;;;7.35;;
20154;SDS011;10238;49.556;10.956;2022-07-23T08:18:47;11.82;;;8.13;;
20154;SDS011;10238;49.556;10.956;2022-07-23T08:21:16;11.52;;;8.85;;
20154;SDS011;10238;49.556;10.956;2022-07-23T08:23:45;11.00;;;9.40;;
20154;SDS011;10238;49.556;10.956;2022-07-23T08:26:14;10.27;;;8.57;;
20154;SDS011;10238;49.556;10.956;2022-07-23T08:28:44;10.95;;;8.88;;
20154;SDS011;10238;49.556;10.956;2022-07-23T08:31:13;13.43;;;9.20;;
20154;SDS011;10238;49.556;10.956;2022-07-23T08:33:43;11.77;;;9.18;;
20154;SDS011;10238;49.556;10.956;2022-07-23T08:36:12;10.70;;;8.55;;
20154;SDS011;10238;49.556;10.956;2022-07-23T08:38:42;11.82;;;9.50;;
20154;SDS011;10238;49.556;10.956;2022-07-23T08:41:11;12.93;;;11.93;;
20154;SDS011;10238;49.556;10.956;2022-07-23T08:43:40;9.02;;;8.18;;
20154;SDS011;10238;49.556;10.956;2022-07-23T08:46:12;10.75;;;8.18;;
20154;SDS011;10238;49.556;10.956;2022-07-23T08:48:42;12.40;;;11.20;;
20154;SDS011;10238;49.556;10.956;2022-07-23T08:51:11;12.80;;;11.48;;
20154;SDS011;10238;49.556;10.956;2022-07-23T08:53:41;12.65;;;11.25;;
20154;SDS011;10238;49.556;10.956;2022-07-23T08:56:10;12.07;;;11.07;;
20154;SDS011;10238;49.556;10.956;2022-07-23T08:58:39;13.18;;;11.80;;
20154;SDS011;10238;49.556;10.956;2022-07-23T09:01:08;15.70;;;14.45;;
20154;SDS011;10238;49.556;10.956;2022-07-23T09:03:38;12.27;;;11.15;;
20154;SDS011;10238;49.556;10.956;2022-07-23T09:06:07;13.10;;;11.75;;
20154;SDS011;10238;49.556;10.956;2022-07-23T09:08:37;13.55;;;11.95;;
20154;SDS011;10238;49.556;10.956;2022-07-23T09:11:08;11.18;;;10.18;;
20154;SDS011;10238;49.556;10.956;2022-07-23T09:13:40;10.95;;;9.23;;
20154;SDS011;10238;49.556;10.956;2022-07-23T09:16:14;11.48;;;10.32;;
20154;SDS011;10238;49.556;10.956;2022-07-23T09:18:47;16.63;;;15.27;;
20154;SDS011;10238;49.556;10.956;2022-07-23T09:21:20;15.30;;;13.82;;
20154;SDS011;10238;49.556;10.956;2022-07-23T09:23:53;13.73;;;12.35;;
20154;SDS011;10238;49.556;10.956;2022-07-23T09:26:35;13.85;;;12.52;;
20154;SDS011;10238;49.556;10.956;2022-07-23T09:29:08;14.55;;;13.45;;
20154;SDS011;10238;49.556;10.956;2022-07-23T09:31:46;21.00;;;19.40;;
20154;SDS011;10238;49.556;10.956;2022-07-23T09:34:20;20.55;;;19.05;;
20154;SDS011;10238;49.556;10.956;2022-07-23T09:36:55;22.73;;;21.05;;
20154;SDS011;10238;49.556;10.956;2022-07-23T09:39:27;15.73;;;13.67;;
20154;SDS011;10238;49.556;10.956;2022-07-23T09:41:58;24.67;;;22.98;;
20154;SDS011;10238;49.556;10.956;2022-07-23T09:44:43;12.50;;;11.18;;
20154;SDS011;10238;49.556;10.956;2022-07-23T09:47:15;9.38;;;8.48;;
20154;SDS011;10238;49.556;10.956;2022-07-23T09:49:58;12.15;;;10.95;;
20154;SDS011;10238;49.556;10.956;2022-07-23T09:52:32;13.15;;;11.95;;
20154;SDS011;10238;49.556;10.956;2022-07-23T09:55:04;8.80;;;8.00;;
20154;SDS011;10238;49.556;10.956;2022-07-23T09:57:34;10.20;;;9.20;;
20154;SDS011;10238;49.556;10.956;2022-07-23T10:00:06;11.45;;;9.77;;
20154;SDS011;10238;49.556;10.956;2022-07-23T10:02:38;11.27;;;10.20;;
20154;SDS011;10238;49.556;10.956;2022-07-23T10:05:09;13.00;;;9.60;;
20154;SDS011;10238;49.556;10.956;2022-07-23T10:07:39;12.00;;;9.30;;
20154;SDS011;10238;49.556;10.956;2022-07-23T10:10:09;11.80;;;9.82;;
20154;SDS011;10238;49.556;10.956;2022-07-23T10:12:42;13.00;;;8.43;;
20154;SDS011;10238;49.556;10.956;2022-07-23T10:15:35;9.93;;;8.50;;
20154;SDS011;10238;49.556;10.956;2022-07-23T10:18:04;10.23;;;8.88;;
20154;SDS011;10238;49.556;10.956;2022-07-23T10:20:35;8.88;;;8.07;;
20154;SDS011;10238;49.556;10.956;2022-07-23T10:23:07;10.82;;;8.65;;
20154;SDS011;10238;49.556;10.956;2022-07-23T10:25:54;10.40;;;8.98;;
20154;SDS011;10238;49.556;10.956;2022-07-23T10:28:41;11.20;;;8.53;;
20154;SDS011;10238;49.556;10.956;2022-07-23T10:31:31;9.68;;;8.65;;
20154;SDS011;10238;49.556;10.956;2022-07-23T10:34:30;11.63;;;8.90;;
20154;SDS011;10238;49.556;10.956;2022-07-23T10:37:14;22.55;;;20.83;;
20154;SDS011;10238;49.556;10.956;2022-07-23T10:42:40;11.80;;;10.70;;
20154;SDS011;10238;49.556;10.956;2022-07-23T10:45:22;13.27;;;11.80;;
20154;SDS011;10238;49.556;10.956;2022-07-23T10:47:54;14.45;;;12.75;;
20154;SDS011;10238;49.556;10.956;2022-07-23T10:50:40;16.13;;;14.18;;
20154;SDS011;10238;49.556;10.956;2022-07-23T10:53:12;30.17;;;28.17;;
20154;SDS011;10238;49.556;10.956;2022-07-23T10:55:46;34.83;;;32.67;;
20154;SDS011;10238;49.556;10.956;2022-07-23T10:58:19;31.20;;;29.20;;
20154;SDS011;10238;49.556;10.956;2022-07-23T11:04:02;31.48;;;29.58;;
20154;SDS011;10238;49.556;10.956;2022-07-23T11:09:39;15.18;;;13.95;;
20154;SDS011;10238;49.556;10.956;2022-07-23T11:15:04;34.08;;;31.98;;
20154;SDS011;10238;49.556;10.956;2022-07-23T11:17:37;38.38;;;36.00;;
20154;SDS011;10238;49.556;10.956;2022-07-23T11:20:26;33.55;;;31.55;;
20154;SDS011;10238;49.556;10.956;2022-07-23T11:22:56;36.20;;;34.00;;
20154;SDS011;10238;49.556;10.956;2022-07-23T11:25:37;43.20;;;40.55;;
20154;SDS011;10238;49.556;10.956;2022-07-23T11:30:53;42.72;;;40.22;;
20154;SDS011;10238;49.556;10.956;2022-07-23T11:33:23;34.55;;;32.22;;
20154;SDS011;10238;49.556;10.956;2022-07-23T11:36:02;24.35;;;22.48;;
20154;SDS011;10238;49.556;10.956;2022-07-23T11:38:31;37.75;;;35.60;;
20154;SDS011;10238;49.556;10.956;2022-07-23T11:41:02;30.20;;;28.10;;
20154;SDS011;10238;49.556;10.956;2022-07-23T11:43:31;40.30;;;38.00;;
20154;SDS011;10238;49.556;10.956;2022-07-23T11:46:00;35.22;;;33.22;;
20154;SDS011;10238;49.556;10.956;2022-07-23T11:48:29;21.52;;;19.90;;
20154;SDS011;10238;49.556;10.956;2022-07-23T11:51:07;14.65;;;13.55;;
20154;SDS011;10238;49.556;10.956;2022-07-23T11:53:36;29.10;;;27.20;;
20154;SDS011;10238;49.556;10.956;2022-07-23T11:56:07;13.15;;;12.05;;
20154;SDS011;10238;49.556;10.956;2022-07-23T11:58:38;20.25;;;18.63;;
20154;SDS011;10238;49.556;10.956;2022-07-23T12:01:22;15.15;;;14.05;;
20154;SDS011;10238;49.556;10.956;2022-07-23T12:03:52;24.15;;;22.48;;
20154;SDS011;10238;49.556;10.956;2022-07-23T12:06:21;18.55;;;17.20;;
20154;SDS011;10238;49.556;10.956;2022-07-23T12:08:50;14.32;;;13.02;;
20154;SDS011;10238;49.556;10.956;2022-07-23T12:11:20;10.90;;;10.00;;
20154;SDS011;10238;49.556;10.956;2022-07-23T12:13:55;11.48;;;9.73;;
20154;SDS011;10238;49.556;10.956;2022-07-23T12:16:25;18.40;;;16.88;;
20154;SDS011;10238;49.556;10.956;2022-07-23T12:18:55;27.13;;;25.42;;
20154;SDS011;10238;49.556;10.956;2022-07-23T12:21:24;16.77;;;15.10;;
20154;SDS011;10238;49.556;10.956;2022-07-23T12:24:05;11.88;;;10.77;;
20154;SDS011;10238;49.556;10.956;2022-07-23T12:26:38;11.77;;;9.80;;
20154;SDS011;10238;49.556;10.956;2022-07-23T12:29:33;10.83;;;9.30;;
20154;SDS011;10238;49.556;10.956;2022-07-23T12:32:15;9.32;;;7.93;;
20154;SDS011;10238;49.556;10.956;2022-07-23T12:34:48;8.85;;;7.97;;
20154;SDS011;10238;49.556;10.956;2022-07-23T12:40:24;9.02;;;8.05;;
20154;SDS011;10238;49.556;10.956;2022-07-23T12:43:09;10.00;;;8.13;;
20154;SDS011;10238;49.556;10.956;2022-07-23T12:46:04;9.27;;;8.18;;
20154;SDS011;10238;49.556;10.956;2022-07-23T12:48:36;10.75;;;9.70;;
20154;SDS011;10238;49.556;10.956;2022-07-23T12:51:07;11.43;;;10.43;;
20154;SDS011;10238;49.556;10.956;2022-07-23T12:53:47;11.23;;;10.23;;
20154;SDS011;10238;49.556;10.956;2022-07-23T12:56:20;9.52;;;8.38;;
20154;SDS011;10238;49.556;10.956;2022-07-23T12:58:56;9.02;;;8.32;;
20154;SDS011;10238;49.556;10.956;2022-07-23T13:01:34;7.53;;;6.93;;
20154;SDS011;10238;49.556;10.956;2022-07-23T13:04:05;8.73;;;7.43;;
20154;SDS011;10238;49.556;10.956;2022-07-23T13:06:41;8.20;;;7.40;;
20154;SDS011;10238;49.556;10.956;2022-07-23T13:09:14;8.43;;;7.38;;
20154;SDS011;10238;49.556;10.956;2022-07-23T13:11:45;8.38;;;7.35;;
20154;SDS011;10238;49.556;10.956;2022-07-23T13:14:17;7.72;;;7.03;;
20154;SDS011;10238;49.556;10.956;2022-07-23T13:16:48;7.90;;;7.00;;
20154;SDS011;10238;49.556;10.956;2022-07-23T13:19:18;7.50;;;6.80;;
20154;SDS011;10238;49.556;10.956;2022-07-23T13:21:49;8.27;;;7.38;;
20154;SDS011;10238;49.556;10.956;2022-07-23T13:24:20;9.30;;;7.32;;
20154;SDS011;10238;49.556;10.956;2022-07-23T13:26:50;8.10;;;7.30;;
20154;SDS011;10238;49.556;10.956;2022-07-23T13:29:20;8.68;;;6.97;;
20154;SDS011;10238;49.556;10.956;2022-07-23T13:31:49;7.82;;;7.00;;
20154;SDS011;10238;49.556;10.956;2022-07-23T13:34:18;7.90;;;7.15;;
20154;SDS011;10238;49.556;10.956;2022-07-23T13:36:47;9.18;;;7.53;;
20154;SDS011;10238;49.556;10.956;2022-07-23T13:39:16;7.95;;;6.53;;
20154;SDS011;10238;49.556;10.956;2022-07-23T13:41:45;8.15;;;7.35;;
20154;SDS011;10238;49.556;10.956;2022-07-23T13:44:22;8.02;;;6.55;;
20154;SDS011;10238;49.556;10.956;2022-07-23T13:47:19;8.25;;;7.45;;
20154;SDS011;10238;49.556;10.956;2022-07-23T13:49:48;8.73;;;8.00;;
20154;SDS011;10238;49.556;10.956;2022-07-23T13:52:28;8.00;;;6.95;;
20154;SDS011;10238;49.556;10.956;2022-07-23T13:55:01;7.45;;;6.65;;
20154;SDS011;10238;49.556;10.956;2022-07-23T13:57:35;8.63;;;7.72;;
20154;SDS011;10238;49.556;10.956;2022-07-23T14:03:20;9.80;;;8.73;;
20154;SDS011;10238;49.556;10.956;2022-07-23T14:05:51;8.13;;;7.22;;
20154;SDS011;10238;49.556;10.956;2022-07-23T14:08:25;7.60;;;6.82;;
20154;SDS011;10238;49.556;10.956;2022-07-23T14:10:57;8.57;;;7.65;;
20154;SDS011;10238;49.556;10.956;2022-07-23T14:13:38;7.93;;;6.65;;
20154;SDS011;10238;49.556;10.956;2022-07-23T14:16:16;8.05;;;7.28;;
20154;SDS011;10238;49.556;10.956;2022-07-23T14:18:48;7.80;;;7.10;;
20154;SDS011;10238;49.556;10.956;2022-07-23T14:21:25;8.15;;;7.35;;
20154;SDS011;10238;49.556;10.956;2022-07-23T14:23:54;7.22;;;6.07;;
20154;SDS011;10238;49.556;10.956;2022-07-23T14:26:23;8.90;;;6.75;;
20154;SDS011;10238;49.556;10.956;2022-07-23T14:28:52;7.80;;;7.00;;
20154;SDS011;10238;49.556;10.956;2022-07-23T14:31:23;9.27;;;6.75;;
20154;SDS011;10238;49.556;10.956;2022-07-23T14:33:52;7.40;;;6.15;;
20154;SDS011;10238;49.556;10.956;2022-07-23T14:36:21;7.75;;;7.10;;
20154;SDS011;10238;49.556;10.956;2022-07-23T14:38:50;7.50;;;6.78;;
20154;SDS011;10238;49.556;10.956;2022-07-23T14:41:19;8.45;;;7.57;;
20154;SDS011;10238;49.556;10.956;2022-07-23T14:43:53;8.05;;;7.35;;
20154;SDS011;10238;49.556;10.956;2022-07-23T14:46:24;8.48;;;7.68;;
20154;SDS011;10238;49.556;10.956;2022-07-23T14:48:53;8.38;;;7.78;;
20154;SDS011;10238;49.556;10.956;2022-07-23T14:51:22;9.35;;;7.70;;
20154;SDS011;10238;49.556;10.956;2022-07-23T14:53:52;8.30;;;7.50;;
20154;SDS011;10238;49.556;10.956;2022-07-23T14:56:21;7.97;;;7.28;;
20154;SDS011;10238;49.556;10.956;2022-07-23T14:58:51;8.77;;;8.02;;
20154;SDS011;10238;49.556;10.956;2022-07-23T15:03:52;8.27;;;7.53;;
20154;SDS011;10238;49.556;10.956;2022-07-23T15:06:25;9.82;;;9.00;;